createdAt,value
2023-03-15T01:23:00.595Z,775.00
2023-03-15T01:24:00.674Z,769.00
2023-03-15T01:25:00.747Z,767.00
2023-03-15T01:26:00.814Z,763.00
2023-03-15T01:27:00.875Z,760.00
2023-03-15T01:28:01.020Z,765.00
2023-03-15T01:29:01.008Z,773.00
2023-03-15T02:01:03.004Z,737.00
2023-03-15T02:02:03.032Z,740.00
2023-03-15T02:03:03.059Z,742.00
2023-03-15T02:04:03.099Z,745.00
2023-03-15T02:05:03.149Z,735.00
2023-03-15T02:07:03.247Z,738.00
2023-03-15T02:08:03.291Z,741.00
2023-03-15T02:09:03.342Z,735.00
2023-03-15T02:10:03.425Z,730.00
2023-03-15T02:11:03.443Z,732.00
2023-03-15T02:12:03.487Z,726.00
2023-03-15T02:13:03.621Z,723.00
2023-03-15T02:14:03.614Z,735.00
2023-03-15T02:15:03.683Z,719.00
2023-03-15T02:16:03.781Z,715.00
2023-03-15T02:17:03.821Z,719.00
2023-03-15T02:18:03.882Z,724.00
2023-03-15T02:19:03.942Z,729.00
2023-03-15T02:20:04.011Z,719.00
2023-03-15T02:21:04.068Z,716.00
2023-03-15T02:22:04.130Z,714.00
2023-03-15T02:23:04.208Z,706.00
2023-03-15T02:24:04.253Z,729.00
2023-03-15T02:25:04.313Z,705.00
2023-03-15T02:26:04.371Z,698.00
2023-03-15T02:27:04.507Z,702.00
2023-03-15T02:28:04.490Z,700.00
2023-03-15T02:30:04.623Z,701.00
2023-03-15T04:00:10.670Z,645.00
2023-03-15T04:01:10.744Z,646.00
2023-03-15T04:02:10.800Z,646.00
2023-03-15T04:03:10.815Z,642.00
2023-03-15T04:04:10.877Z,641.00
2023-03-15T04:05:10.952Z,639.00
2023-03-15T04:06:11.142Z,636.00
2023-03-15T04:07:11.075Z,639.00
2023-03-15T04:08:11.144Z,638.00
2023-03-15T04:09:11.200Z,638.00
2023-03-15T04:10:11.250Z,643.00
2023-03-15T04:11:11.314Z,640.00
2023-03-15T04:12:11.396Z,639.00
2023-03-15T04:36:12.537Z,623.00
2023-03-15T06:53:21.250Z,532.00
2023-03-15T06:54:21.098Z,535.00
2023-03-15T06:59:21.092Z,534.00
2023-03-15T07:01:20.630Z,530.00
2023-03-15T07:02:20.695Z,530.00
2023-03-15T07:03:20.717Z,530.00
2023-03-15T07:04:20.772Z,528.00
2023-03-15T07:05:20.853Z,526.00
2023-03-15T07:06:20.905Z,523.00
2023-03-15T07:07:20.956Z,521.00
2023-03-15T07:09:21.080Z,521.00
2023-03-15T07:10:21.128Z,519.00
2023-03-15T09:27:31.577Z,738.00
2023-03-15T09:28:30.694Z,800.00
2023-03-15T09:29:30.772Z,783.00
2023-03-15T09:30:30.895Z,890.00
2023-03-15T09:31:31.032Z,963.00
2023-03-15T09:32:31.155Z,1046.00
2023-03-15T09:33:31.223Z,1081.00
2023-03-15T09:34:39.894Z,1137.00
2023-03-15T09:36:31.415Z,1152.00
2023-03-15T09:37:31.454Z,1186.00
2023-03-15T09:38:31.496Z,1255.00
2023-03-15T09:39:31.540Z,1371.00
2023-03-15T09:40:31.582Z,1399.00
2023-03-15T09:41:31.613Z,1423.00
2023-03-15T09:42:31.662Z,1463.00
2023-03-15T09:43:31.694Z,1504.00
2023-03-15T09:44:31.732Z,1530.00
2023-03-15T09:45:31.776Z,1544.00
2023-03-15T09:46:33.106Z,1559.00
2023-03-15T09:47:31.836Z,1577.00
2023-03-15T09:48:31.874Z,1604.00
2023-03-15T09:49:31.908Z,1621.00
2023-03-15T09:50:31.949Z,1631.00
2023-03-15T09:51:31.982Z,1655.00
2023-03-15T09:52:32.026Z,1663.00
2023-03-15T09:53:32.045Z,1699.00
2023-03-15T09:54:32.088Z,1711.00
2023-03-15T10:04:32.573Z,1751.00
2023-03-15T10:11:33.083Z,1780.00
2023-03-15T10:16:33.652Z,1780.00
2023-03-15T10:39:34.738Z,1874.00
2023-03-15T12:21:40.657Z,2323.00
2023-03-15T12:22:40.741Z,2320.00
2023-03-15T12:23:40.828Z,2313.00
2023-03-15T12:24:40.933Z,2314.00
2023-03-15T12:25:54.066Z,2296.00
2023-03-15T12:26:42.032Z,2297.00
2023-03-15T12:27:41.045Z,2298.00
2023-03-15T12:28:41.070Z,2297.00
2023-03-15T12:29:41.115Z,2280.00
2023-03-15T12:30:41.183Z,2281.00
2023-03-15T12:31:41.173Z,2280.00
2023-03-15T12:32:41.221Z,2277.00
2023-03-15T12:33:41.231Z,2261.00
2023-03-15T12:34:41.267Z,2247.00
2023-03-15T12:35:41.313Z,2236.00
2023-03-15T12:36:41.386Z,2227.00
2023-03-15T12:37:41.505Z,2215.00
2023-03-15T12:38:41.563Z,2227.00
2023-03-15T12:39:41.636Z,2226.00
2023-03-15T12:40:41.712Z,2205.00
2023-03-15T12:41:41.804Z,2202.00
2023-03-15T12:42:41.873Z,2202.00
2023-03-15T12:43:41.943Z,2197.00
2023-03-15T12:44:42.021Z,2175.00
2023-03-15T12:45:42.103Z,2164.00
2023-03-15T12:46:42.173Z,2166.00
2023-03-15T12:47:42.268Z,2148.00
2023-03-15T12:48:42.333Z,2150.00
2023-03-15T12:49:42.387Z,2148.00
2023-03-15T12:50:42.490Z,2140.00
2023-03-15T12:51:42.564Z,2127.00
2023-03-15T12:52:42.630Z,2123.00
2023-03-15T12:53:42.710Z,2125.00
2023-03-15T12:54:42.785Z,2113.00
2023-03-15T12:55:42.874Z,2091.00
2023-03-15T12:56:42.936Z,2108.00
2023-03-15T12:57:43.020Z,2070.00
2023-03-15T12:58:43.101Z,2062.00
2023-03-15T12:59:43.725Z,2055.00
2023-03-15T13:00:43.254Z,2078.00
2023-03-15T13:01:43.418Z,2051.00
2023-03-15T13:02:44.516Z,2054.00
2023-03-15T13:03:43.508Z,2055.00
2023-03-15T13:04:43.604Z,2041.00
2023-03-15T13:05:45.205Z,2027.00
2023-03-15T13:06:43.724Z,2048.00
2023-03-15T13:07:51.154Z,2054.00
2023-03-15T13:08:44.807Z,2055.00
2023-03-15T13:09:43.841Z,2055.00
2023-03-15T13:10:43.881Z,2056.00
2023-03-15T13:11:43.928Z,2045.00
2023-03-15T13:12:43.964Z,2020.00
2023-03-15T13:13:44.044Z,1991.00
2023-03-15T13:14:44.049Z,1981.00
2023-03-15T13:15:44.131Z,1925.00
2023-03-15T13:16:44.120Z,1878.00
2023-03-15T13:17:44.163Z,1823.00
2023-03-15T13:18:44.202Z,1760.00
2023-03-15T13:19:44.240Z,1737.00
2023-03-15T13:20:44.277Z,1703.00
2023-03-15T13:21:44.321Z,1688.00
2023-03-15T13:22:54.866Z,1691.00
2023-03-15T13:23:45.392Z,1692.00
2023-03-15T13:24:44.431Z,1694.00
2023-03-15T13:25:44.458Z,1694.00
2023-03-15T13:26:44.502Z,1692.00
2023-03-15T13:27:44.536Z,1683.00
2023-03-15T13:28:44.573Z,1686.00
2023-03-15T13:29:44.613Z,1668.00
2023-03-15T13:30:44.673Z,1655.00
2023-03-15T13:31:44.715Z,1656.00
2023-03-15T13:32:44.771Z,1651.00
2023-03-15T13:33:44.767Z,1615.00
2023-03-15T13:34:44.830Z,1625.00
2023-03-15T13:35:44.899Z,1619.00
2023-03-15T13:36:46.204Z,1620.00
2023-03-15T13:37:44.935Z,1618.00
2023-03-15T13:38:44.998Z,1627.00
2023-03-15T13:39:45.011Z,1622.00
2023-03-15T13:40:45.054Z,1621.00
2023-03-15T13:41:45.093Z,1598.00
2023-03-15T13:42:45.140Z,1613.00
2023-03-15T13:43:45.179Z,1599.00
2023-03-15T13:44:45.239Z,1595.00
2023-03-15T13:45:45.262Z,1603.00
2023-03-15T13:46:45.347Z,1592.00
2023-03-15T13:47:45.323Z,1606.00
2023-03-15T13:48:45.351Z,1601.00
2023-03-15T13:49:45.385Z,1571.00
2023-03-15T13:50:45.430Z,1563.00
2023-03-15T13:51:45.481Z,1558.00
2023-03-15T13:52:45.500Z,1566.00
2023-03-15T13:53:49.831Z,1559.00
2023-03-15T13:54:45.602Z,1559.00
2023-03-15T13:55:45.614Z,1559.00
2023-03-15T13:56:49.666Z,1561.00
2023-03-15T13:57:45.692Z,1559.00
2023-03-15T13:58:45.742Z,1558.00
2023-03-15T13:59:45.775Z,1546.00
2023-03-15T14:00:45.822Z,1555.00
2023-03-15T14:01:45.928Z,1539.00
2023-03-15T14:02:46.000Z,1531.00
2023-03-15T14:03:45.985Z,1532.00
2023-03-15T15:28:50.674Z,1263.00
2023-03-15T15:29:50.767Z,1261.00
2023-03-15T15:30:53.179Z,1272.00
2023-03-15T15:31:51.049Z,1252.00
2023-03-15T15:32:51.108Z,1251.00
2023-03-15T15:33:51.115Z,1246.00
2023-03-15T15:34:51.218Z,1254.00
2023-03-15T15:35:51.336Z,1243.00
2023-03-15T15:36:51.392Z,1263.00
2023-03-15T15:37:51.499Z,1240.00
2023-03-15T15:38:51.580Z,1243.00
2023-03-15T15:39:51.659Z,1262.00
2023-03-15T15:40:51.751Z,1255.00
2023-03-15T15:41:51.863Z,1254.00
2023-03-15T17:06:00.686Z,1252.00
2023-03-15T17:07:00.776Z,1254.00
2023-03-15T17:08:00.892Z,1251.00
2023-03-15T17:09:00.978Z,1244.00
2023-03-15T17:10:01.107Z,1247.00
2023-03-15T17:11:01.203Z,1243.00
2023-03-15T17:12:01.305Z,1245.00
2023-03-15T17:13:01.402Z,1262.00
2023-03-15T17:14:01.519Z,1257.00
2023-03-15T17:15:01.632Z,1251.00
2023-03-15T17:17:01.840Z,1235.00
2023-03-15T17:18:01.950Z,1242.00
2023-03-15T17:19:02.063Z,1246.00
2023-03-15T18:53:10.673Z,1188.00
2023-03-15T18:54:10.764Z,1179.00
2023-03-15T18:55:10.868Z,1180.00
2023-03-15T18:56:10.955Z,1168.00
2023-03-15T18:57:11.061Z,1171.00
2023-03-15T18:58:11.211Z,1171.00
2023-03-15T18:59:11.244Z,1182.00
2023-03-15T19:00:11.343Z,1195.00
2023-03-15T19:01:11.437Z,1188.00
2023-03-15T19:02:11.571Z,1181.00
2023-03-15T19:03:11.644Z,1184.00
2023-03-15T20:55:20.665Z,1089.00
2023-03-15T20:56:20.734Z,1090.00
2023-03-15T20:57:20.789Z,1069.00
2023-03-15T20:58:20.875Z,1098.00
2023-03-15T20:59:20.929Z,1082.00
2023-03-15T21:00:21.409Z,1080.00
2023-03-15T21:01:21.130Z,1074.00
2023-03-15T21:02:21.090Z,1062.00
2023-03-15T21:03:21.210Z,1084.00
2023-03-15T21:04:21.207Z,1078.00
2023-03-15T21:05:21.302Z,1068.00
2023-03-15T21:06:21.357Z,1067.00
2023-03-15T21:07:21.428Z,1072.00
2023-03-15T21:08:21.545Z,1058.00
2023-03-15T21:09:21.518Z,1074.00
2023-03-15T21:10:21.922Z,1069.00
2023-03-15T21:11:21.681Z,1062.00
2023-03-15T21:12:21.744Z,1070.00
2023-03-15T21:13:21.804Z,1068.00
2023-03-15T21:14:21.862Z,1067.00
2023-03-15T21:15:21.918Z,1056.00
2023-03-15T21:16:22.039Z,1059.00
2023-03-15T21:17:22.067Z,1065.00
2023-03-15T21:18:22.100Z,1054.00
2023-03-15T21:19:22.154Z,1077.00
2023-03-15T21:20:22.491Z,1072.00
2023-03-15T21:21:22.281Z,1052.00
2023-03-15T21:22:22.322Z,1050.00
2023-03-15T21:23:22.399Z,1053.00
2023-03-15T21:24:22.423Z,1062.00
2023-03-15T21:25:22.476Z,1057.00
2023-03-15T21:26:22.555Z,1052.00
2023-03-15T21:27:22.620Z,1073.00
2023-03-15T21:28:22.666Z,1055.00
2023-03-15T21:29:22.712Z,1059.00
2023-03-15T21:30:23.034Z,1048.00
2023-03-15T21:31:22.879Z,1066.00
2023-03-15T21:32:23.003Z,1041.00
2023-03-15T21:33:22.950Z,1053.00
2023-03-15T21:34:22.999Z,1057.00
2023-03-15T21:35:23.077Z,1050.00
2023-03-15T21:36:23.076Z,1026.00
2023-03-15T21:37:23.124Z,1037.00
2023-03-15T21:38:23.187Z,1050.00
2023-03-15T21:39:23.222Z,1061.00
2023-03-15T21:40:23.643Z,1054.00
2023-03-15T21:41:23.370Z,1044.00
2023-03-15T21:42:23.435Z,1031.00
2023-03-15T21:43:23.484Z,1052.00
2023-03-15T21:44:23.524Z,1039.00
2023-03-15T21:45:23.612Z,1033.00
2023-03-15T21:46:23.739Z,1030.00
2023-03-15T21:47:23.661Z,1041.00
2023-03-15T21:48:23.754Z,1040.00
2023-03-15T21:49:23.804Z,1029.00
2023-03-15T21:50:24.098Z,1038.00
2023-03-15T21:51:23.914Z,1026.00
2023-03-15T21:52:23.953Z,1014.00
2023-03-15T21:53:24.006Z,1025.00
2023-03-15T21:54:24.052Z,1031.00
2023-03-15T21:55:24.114Z,1041.00
2023-03-15T21:56:25.973Z,1025.00
2023-03-15T21:57:24.260Z,1034.00
2023-03-15T21:58:24.304Z,1036.00
2023-03-15T21:59:24.389Z,1028.00
2023-03-15T22:00:24.708Z,1031.00
2023-03-15T22:01:24.608Z,1018.00
2023-03-15T22:02:24.607Z,1007.00
2023-03-15T22:03:24.666Z,1008.00
2023-03-15T22:04:24.807Z,1020.00
2023-03-15T22:05:24.779Z,1011.00
2023-03-15T22:06:24.852Z,1018.00
2023-03-15T22:07:24.911Z,1015.00
2023-03-15T22:08:24.984Z,1019.00
2023-03-15T22:09:25.051Z,1007.00
2023-03-15T22:10:25.450Z,1010.00
2023-03-15T22:11:25.175Z,1008.00
2023-03-15T22:12:25.258Z,1007.00
2023-03-15T22:13:25.280Z,1014.00
2023-03-15T22:14:25.337Z,1007.00
2023-03-15T22:15:25.396Z,1012.00
2023-03-15T22:16:25.570Z,1003.00
2023-03-15T22:17:27.308Z,1010.00
2023-03-15T22:18:25.545Z,1006.00
2023-03-15T22:19:25.585Z,1009.00
2023-03-15T22:20:26.010Z,1014.00
2023-03-15T22:21:25.687Z,1011.00
2023-03-15T22:22:25.734Z,1004.00
2023-03-15T22:23:25.785Z,1003.00
2023-03-15T22:24:25.822Z,991.00
2023-03-15T22:25:25.869Z,993.00
2023-03-15T22:26:25.909Z,995.00
2023-03-15T22:27:25.961Z,1007.00
2023-03-15T22:28:26.009Z,1002.00
2023-03-15T22:29:26.049Z,976.00
2023-03-15T22:30:26.523Z,990.00
2023-03-15T22:31:26.166Z,991.00
2023-03-15T22:32:26.225Z,1003.00
2023-03-15T22:33:26.240Z,987.00
2023-03-15T22:34:26.281Z,993.00
2023-03-15T22:35:26.379Z,985.00
2023-03-15T22:36:26.389Z,985.00
2023-03-15T22:37:26.422Z,969.00
2023-03-15T22:38:26.486Z,984.00
2023-03-15T22:39:26.517Z,978.00
2023-03-15T22:40:27.055Z,964.00
2023-03-15T22:41:26.606Z,981.00
2023-03-15T22:42:26.652Z,980.00
2023-03-15T22:43:26.707Z,967.00
2023-03-15T22:44:28.437Z,968.00
2023-03-15T22:45:26.813Z,969.00
2023-03-15T22:46:26.895Z,970.00
2023-03-15T22:47:26.899Z,971.00
2023-03-15T22:48:26.943Z,979.00
2023-03-15T22:49:26.999Z,985.00
2023-03-15T22:50:27.373Z,979.00
2023-03-15T22:51:27.081Z,963.00
2023-03-15T22:52:27.145Z,986.00
2023-03-15T22:53:27.170Z,970.00
2023-03-15T22:54:27.219Z,977.00
2023-03-15T22:55:27.265Z,977.00
2023-03-15T22:56:27.304Z,959.00
2023-03-15T22:57:27.346Z,966.00
2023-03-15T22:58:27.396Z,957.00
2023-03-15T22:59:27.419Z,959.00
2023-03-15T23:00:27.855Z,965.00
2023-03-15T23:01:27.525Z,955.00
2023-03-15T23:02:27.562Z,953.00
2023-03-15T23:03:27.581Z,965.00
2023-03-15T23:04:27.640Z,957.00
2023-03-15T23:05:27.676Z,959.00
2023-03-15T23:06:27.734Z,960.00
2023-03-15T23:07:27.928Z,939.00
2023-03-15T23:08:27.814Z,939.00
2023-03-15T23:09:27.861Z,953.00
2023-03-15T23:10:28.339Z,945.00
2023-03-15T23:11:27.952Z,949.00
2023-03-15T23:12:35.809Z,943.00
2023-03-15T23:13:29.040Z,945.00
2023-03-15T23:14:28.081Z,948.00
2023-03-15T23:15:28.116Z,948.00
2023-03-15T23:16:28.205Z,954.00
2023-03-15T23:17:28.213Z,964.00
2023-03-15T23:18:28.251Z,948.00
2023-03-15T23:19:28.299Z,943.00
2023-03-15T23:20:28.839Z,955.00
2023-03-15T23:21:28.376Z,952.00
2023-03-15T23:22:28.415Z,946.00
2023-03-15T23:23:28.471Z,947.00
2023-03-15T23:24:28.512Z,954.00
2023-03-15T23:25:28.556Z,952.00
2023-03-15T23:26:28.600Z,937.00
2023-03-15T23:27:28.648Z,941.00
2023-03-15T23:28:28.692Z,942.00
2023-03-15T23:29:28.736Z,941.00
2023-03-15T23:30:29.098Z,941.00
2023-03-15T23:31:28.849Z,928.00
2023-03-15T23:32:28.900Z,926.00
2023-03-15T23:33:28.941Z,925.00
2023-03-15T23:34:28.997Z,918.00
2023-03-15T23:35:29.086Z,942.00
2023-03-15T23:36:29.117Z,926.00
2023-03-15T23:37:29.177Z,924.00
2023-03-15T23:38:29.242Z,933.00
2023-03-15T23:39:29.311Z,910.00
2023-03-15T23:40:29.694Z,932.00
